Flight Track Log - Related Links

Times and Time Zones

All times are in EDT time to prevent confusion due to time zone crossing. See the AMF1026 flight status page for this flight to view local times or setup timezone preferences in your user account.

Time Position Orientation Groundspeed Altitude Reporting Facility
EDT Latitude Longitude Course Direction KTS MPH feet Rate Location/Type
Fri 09:00:48 PM 42.7672 -73.8061 329° Northwest 150 173 1,000  Level Boston Center
Fri 09:01:31 PM 42.7961 -73.8294 329° Northwest 166 191 2,400 1,806 Climbing Boston Center
Fri 09:02:31 PM 42.7747 -73.8856 243° Southwest 174 200 4,100 1,600 Climbing Boston Center
Fri 09:03:16 PM 42.7617 -73.9247 246° West 182 209 5,200 1,528 Climbing Boston Center
Fri 09:04:17 PM 42.7503 -73.9925 257° West 188 216 6,800 1,636 Climbing Boston Center
Fri 09:05:17 PM 42.7494 -74.0572 269° West 188 216 8,500 1,780 Climbing Boston Center
Fri 09:06:15 PM 42.7464 -74.1253 267° West 175 201 10,300 1,563 Climbing Boston Center
Fri 09:07:16 PM 42.7472 -74.1986 271° West 181 208 11,600 1,140 Climbing Boston Center
Fri 09:08:16 PM 42.7483 -74.2636 271° West 186 214 12,600 1,109 Climbing Boston Center
Fri 09:09:15 PM 42.7450 -74.3400 267° West 186 214 13,800 1,100 Climbing Boston Center
Fri 09:10:16 PM 42.7253 -74.4017 246° West 191 220 14,800 1,041 Climbing Boston Center
Fri 09:11:16 PM 42.6989 -74.4742 244° Southwest 196 226 15,900 655 Climbing Boston Center
Fri 09:12:15 PM 42.6769 -74.5411 246° West 209 241 16,100 101 Climbing Boston Center
Fri 09:13:15 PM 42.6522 -74.6364 251° West 239 275 16,100  Level Boston Center
Fri 09:14:16 PM 42.6339 -74.7147 252° West 247 284 16,100  Level Boston Center
Fri 09:15:17 PM 42.6131 -74.8183 255° West 253 291 16,100  Level Boston Center
Fri 09:16:17 PM 42.5928 -74.8881 248° West 253 291 16,100  Level Boston Center
Fri 09:17:18 PM 42.5617 -74.9772 245° Southwest 247 284 16,100  Level Boston Center
Fri 09:18:15 PM 42.5308 -75.0575 242° Southwest 247 284 16,100  Level Boston Center
Fri 09:19:16 PM 42.5017 -75.1381 244° Southwest 247 284 16,100  Level Boston Center
Fri 09:21:35 PM 42.4267 -75.3411 243° Southwest 249 287 16,100  Level New York Center
Fri 09:22:35 PM 42.3983 -75.4233 245° Southwest 254 292 16,100  Level New York Center
Fri 09:23:35 PM 42.3681 -75.5081 244° Southwest 254 292 16,100  Level New York Center
Fri 09:24:35 PM 42.3397 -75.5931 246° West 254 292 16,100  Level New York Center
Fri 09:25:35 PM 42.3092 -75.6750 243° Southwest 254 292 16,100  Level New York Center
Fri 09:26:35 PM 42.2808 -75.7569 245° Southwest 254 292 16,100  Level New York Center
Fri 09:27:35 PM 42.2522 -75.8442 246° West 254 292 16,100  Level New York Center
Fri 09:28:35 PM 42.2217 -75.9258 243° Southwest 254 292 16,100  Level New York Center
Fri 09:29:35 PM 42.1950 -76.0106 247° West 254 292 16,100  Level New York Center
Fri 09:30:35 PM 42.1664 -76.0922 245° Southwest 254 292 16,100  Level New York Center
Fri 09:31:35 PM 42.1394 -76.1797 247° West 254 292 16,100  Level New York Center
Fri 09:32:35 PM 42.1147 -76.2642 248° West 249 287 16,100  Level New York Center
Fri 09:33:35 PM 42.0881 -76.3486 247° West 249 287 16,100  Level New York Center
Fri 09:34:35 PM 42.0592 -76.4300 244° Southwest 249 287 16,100  Level New York Center
Fri 09:35:35 PM 42.0322 -76.5169 247° West 249 287 16,100  Level New York Center
Fri 09:36:35 PM 42.0033 -76.5983 244° Southwest 249 287 16,100  Level New York Center
Fri 09:37:35 PM 41.9722 -76.6792 243° Southwest 249 287 16,100  Level New York Center
Fri 09:38:35 PM 41.9389 -76.7600 241° Southwest 254 292 16,100  Level New York Center
Fri 09:39:35 PM 41.9058 -76.8378 240° Southwest 254 292 16,100  Level New York Center
Fri 09:40:35 PM 41.8706 -76.9153 239° Southwest 254 292 16,100  Level New York Center
Fri 09:42:55 PM 41.7986 -77.0928 242° Southwest 246 283 16,100  Level Cleveland Center
Fri 09:43:55 PM 41.7633 -77.1700 239° Southwest 246 283 16,100  Level Cleveland Center
Fri 09:44:55 PM 41.7261 -77.2556 240° Southwest 246 283 16,100  Level Cleveland Center
Fri 09:45:55 PM 41.6953 -77.3350 243° Southwest 246 283 16,100  Level Cleveland Center
Fri 09:46:55 PM 41.6642 -77.4144 242° Southwest 246 283 16,100  Level Cleveland Center
Fri 09:47:55 PM 41.6350 -77.4936 244° Southwest 246 283 16,100  Level Cleveland Center
Fri 09:48:55 PM 41.5994 -77.5758 240° Southwest 251 289 16,100  Level Cleveland Center
Fri 09:49:55 PM 41.5747 -77.6603 249° West 246 283 16,100  Level Cleveland Center
Fri 09:50:55 PM 41.5558 -77.7444 253° West 241 277 16,100  Level Cleveland Center
Fri 09:51:55 PM 41.5478 -77.8336 263° West 236 272 16,100  Level Cleveland Center
Fri 09:52:55 PM 41.5350 -77.9200 259° West 241 277 16,100  Level Cleveland Center
Fri 09:53:55 PM 41.5100 -78.0044 248° West 241 277 16,100  Level Cleveland Center
Fri 09:54:55 PM 41.4828 -78.0914 247° West 247 284 16,100  Level Cleveland Center
Fri 09:55:55 PM 41.4553 -78.1728 246° West 247 284 16,100  Level Cleveland Center
Fri 09:56:55 PM 41.4339 -78.2456 249° West 253 291 16,100  Level Cleveland Center
Fri 09:57:55 PM 41.4064 -78.3297 246° West 253 291 16,100  Level Cleveland Center
Fri 09:58:55 PM 41.3808 -78.4108 247° West 253 291 16,100  Level Cleveland Center
Fri 09:59:55 PM 41.3553 -78.4944 248° West 253 291 16,100  Level Cleveland Center
Fri 10:00:55 PM 41.3253 -78.5758 244° Southwest 253 291 16,100  Level Cleveland Center
Fri 10:01:55 PM 41.2975 -78.6567 245° Southwest 248 285 16,100  Level Cleveland Center
Fri 10:02:55 PM 41.2656 -78.7350 242° Southwest 242 278 16,100  Level Cleveland Center
Fri 10:03:55 PM 41.2356 -78.8133 243° Southwest 242 278 16,100  Level Cleveland Center
Fri 10:04:55 PM 41.2097 -78.8939 247° West 242 278 16,100  Level Cleveland Center
Fri 10:05:55 PM 41.1775 -78.9803 244° Southwest 242 278 16,100  Level Cleveland Center
Fri 10:06:55 PM 41.1514 -79.0608 247° West 237 273 16,100  Level Cleveland Center
Fri 10:07:55 PM 41.1275 -79.1442 249° West 242 278 16,100  Level Cleveland Center
Fri 10:08:55 PM 41.1075 -79.2164 250° West 242 278 16,100 -50 Level Cleveland Center
Fri 10:09:55 PM 41.0836 -79.2994 249° West 242 278 16,000 -50 Descending Cleveland Center
Fri 10:10:55 PM 41.0636 -79.3853 253° West 242 278 16,000  Level Cleveland Center
Fri 10:11:55 PM 41.0458 -79.4681 254° West 242 278 16,000  Level Cleveland Center
Fri 10:12:55 PM 41.0278 -79.5536 254° West 247 284 16,000  Level Cleveland Center
Fri 10:13:55 PM 41.0075 -79.6394 253° West 247 284 16,000  Level Cleveland Center
Fri 10:14:55 PM 40.9894 -79.7194 253° West 247 284 16,000  Level Cleveland Center
Fri 10:15:55 PM 40.9650 -79.7994 248° West 247 284 16,000  Level Cleveland Center
Fri 10:16:55 PM 40.9406 -79.8822 249° West 247 284 16,000  Level Cleveland Center
Fri 10:17:55 PM 40.9139 -79.9622 246° West 247 284 16,000  Level Cleveland Center
Fri 10:18:55 PM 40.8894 -80.0419 248° West 247 284 16,000  Level Cleveland Center
Fri 10:19:55 PM 40.8583 -80.1303 245° Southwest 247 284 16,000  Level Cleveland Center
Fri 10:20:55 PM 40.8275 -80.1989 239° Southwest 247 284 16,000  Level Cleveland Center
Fri 10:21:55 PM 40.7964 -80.2706 240° Southwest 241 277 16,000  Level Cleveland Center
Fri 10:22:55 PM 40.7547 -80.3419 232° Southwest 241 277 16,000  Level Cleveland Center
Fri 10:23:55 PM 40.7133 -80.4214 236° Southwest 247 284 16,000  Level Cleveland Center
Fri 10:24:55 PM 40.6736 -80.4872 232° Southwest 242 278 16,000  Level Cleveland Center
Fri 10:25:55 PM 40.6322 -80.5586 233° Southwest 242 278 16,000  Level Cleveland Center
Fri 10:26:56 PM 40.5944 -80.6186 230° Southwest 242 278 16,000  Level Cleveland Center
Fri 10:27:55 PM 40.5550 -80.6869 233° Southwest 237 273 16,000  Level Cleveland Center
Fri 10:28:55 PM 40.5172 -80.7578 235° Southwest 237 273 16,000  Level Cleveland Center
Fri 10:29:55 PM 40.4775 -80.8286 234° Southwest 243 280 16,000  Level Cleveland Center
Fri 10:30:55 PM 40.4419 -80.8994 237° Southwest 243 280 16,000  Level Cleveland Center
Fri 10:31:55 PM 40.4042 -80.9675 234° Southwest 243 280 16,000  Level Cleveland Center
Fri 10:32:55 PM 40.3664 -81.0408 236° Southwest 243 280 16,000 50 Level Cleveland Center
Fri 10:33:55 PM 40.3286 -81.1114 235° Southwest 243 280 16,100  Climbing Cleveland Center
Fri 10:34:28 PM 40.3100 -81.1422 232° Southwest 238 274 16,000 -64 Descending Indianapolis Center
Fri 10:35:29 PM 40.2642 -81.2267 235° Southwest 240 276 16,000  Level Indianapolis Center
Fri 10:36:30 PM 40.2281 -81.2967 236° Southwest 233 268 16,000  Level Indianapolis Center
Fri 10:37:31 PM 40.1911 -81.3708 237° Southwest 239 275 16,000  Level Indianapolis Center
Fri 10:38:32 PM 40.1581 -81.4461 240° Southwest 237 273 16,000  Level Indianapolis Center
Fri 10:39:33 PM 40.1261 -81.5244 242° Southwest 241 277 16,000  Level Indianapolis Center
Fri 10:40:34 PM 40.0964 -81.6006 243° Southwest 235 270 16,000  Level Indianapolis Center
Fri 10:41:36 PM 40.0644 -81.6764 241° Southwest 236 272 16,000  Level Indianapolis Center
Fri 10:42:37 PM 40.0317 -81.7528 241° Southwest 239 275 16,000  Level Indianapolis Center
Fri 10:43:38 PM 39.9986 -81.8242 239° Southwest 238 274 16,000  Level Indianapolis Center
Fri 10:44:39 PM 39.9683 -81.9014 243° Southwest 237 273 16,000  Level Indianapolis Center
Fri 10:45:40 PM 39.9400 -81.9800 245° Southwest 239 275 16,000  Level Indianapolis Center
Fri 10:46:41 PM 39.9111 -82.0592 245° Southwest 241 277 16,000  Level Indianapolis Center
Fri 10:47:42 PM 39.8828 -82.1392 245° Southwest 242 278 16,000  Level Indianapolis Center
Fri 10:48:43 PM 39.8550 -82.2192 246° West 243 280 16,000  Level Indianapolis Center
Fri 10:49:44 PM 39.8275 -82.2992 246° West 242 278 16,000  Level Indianapolis Center
Fri 10:50:45 PM 39.8000 -82.3808 246° West 244 281 16,000  Level Indianapolis Center
Fri 10:51:46 PM 39.7733 -82.4619 247° West 245 282 16,000  Level Indianapolis Center
Fri 10:52:47 PM 39.7453 -82.5428 246° West 245 282 16,000  Level Indianapolis Center
Fri 10:53:48 PM 39.7139 -82.6378 247° West 246 283 16,000  Level Indianapolis Center
Fri 10:54:49 PM 39.6869 -82.7189 247° West 245 282 16,000  Level Indianapolis Center
Fri 10:55:50 PM 39.6600 -82.8006 247° West 246 283 16,000  Level Indianapolis Center
Fri 10:56:51 PM 39.6328 -82.8819 247° West 245 282 16,000  Level Indianapolis Center
Fri 10:57:52 PM 39.6047 -82.9639 246° West 247 284 16,000  Level Indianapolis Center
Fri 10:58:53 PM 39.5775 -83.0467 247° West 247 284 16,000  Level Indianapolis Center
Fri 10:59:53 PM 39.5492 -83.1286 246° West 248 285 16,000  Level Indianapolis Center
Fri 11:00:54 PM 39.5217 -83.2117 247° West 249 287 16,000  Level Indianapolis Center
Fri 11:01:55 PM 39.4933 -83.2939 246° West 248 285 16,000 -49 Level Indianapolis Center
Fri 11:02:56 PM 39.4667 -83.3769 247° West 248 285 15,900 -590 Descending Indianapolis Center
Fri 11:03:57 PM 39.4333 -83.4656 244° Southwest 270 311 14,800 -1,033 Descending Indianapolis Center
Fri 11:04:58 PM 39.4025 -83.5589 247° West 279 321 13,800 -984 Descending Indianapolis Center
Fri 11:05:59 PM 39.3731 -83.6517 248° West 275 316 12,800 -885 Descending Indianapolis Center
Fri 11:07:00 PM 39.3458 -83.7436 249° West 272 313 12,000 -393 Descending Indianapolis Center
Fri 11:08:01 PM 39.3219 -83.8317 251° West 259 298 12,000  Level Indianapolis Center
Fri 11:09:02 PM 39.2964 -83.9189 249° West 257 296 12,000  Level Indianapolis Center
Fri 11:10:03 PM 39.2711 -84.0036 249° West 254 292 12,000 -595 Level Indianapolis Center
Fri 11:11:03 PM 39.2431 -84.0892 247° West 256 295 10,800 -1,488 Descending Indianapolis Center
Fri 11:12:04 PM 39.2036 -84.1689 237° Southwest 262 302 9,000 -1,475 Descending Indianapolis Center
Fri 11:13:05 PM 39.1597 -84.2406 232° Southwest 253 291 7,800 -984 Descending Indianapolis Center
Fri 11:14:06 PM 39.1197 -84.3078 233° Southwest 237 273 7,000 -492 Descending Indianapolis Center
Fri 11:15:07 PM 39.0814 -84.3722 233° Southwest 228 262 6,800 -590 Descending Indianapolis Center
Fri 11:16:08 PM 39.0275 -84.4147 211° Southwest 223 257 5,800 -984 Descending Indianapolis Center
Fri 11:17:09 PM 38.9778 -84.4617 216° Southwest 220 253 4,800 -984 Descending Indianapolis Center
Fri 11:18:10 PM 38.9283 -84.5117 218° Southwest 211 243 3,800 -659 Descending Indianapolis Center
Fri 11:19:53 PM 38.8667 -84.6000 228° Southwest 210 242 3,000 -258 Descending Cincinnati TRACON
Fri 11:20:53 PM 38.9000 -84.6667 303° West 203 234 3,100 -200 Climbing Cincinnati TRACON
Fri 11:21:53 PM 38.9500 -84.6667 360° North 178 205 2,600 -650 Descending Cincinnati TRACON
Fri 11:22:53 PM 38.9833 -84.6667 360° North 122 140 1,800 -750 Descending Cincinnati TRACON
Fri 11:23:53 PM 39.0167 -84.6667 360° North 117 135 1,100 -700 Descending Cincinnati TRACON

Login

Don't have an account? Register now (free) for customized features, flight alerts, and more!